Detall de PIREP

Printer-friendly versionPDF version

[2014/12/12 13:18:00]
Flight IATA:CT3201
Pilot Number:026
Company ICAO:CAT
Aircraft Type:DC85/A
PAX:132
Aircraft Registration:PAX
Departing Airport: EHAM
Destination Airport: LEPA
Alternate Airport:LEMH
Online: VATSIM
Route:LARAS LEKKO UN872 KOVIN UM728 RESMI UN857 DIRMO UN855 PPG UP84 LORES
Flight Level:F310
No Slew and time accel
No pause
Crash detect
Detect pilot in Cockpit between each 30 and 45 minutes
13:18 Zero fuel Weight: 179061 Lbs, Fuel Weight: 42081 Lbs
13:18 VATSIM:EHAM 121255Z 26019KT 8000 -SHRA FEW011 SCT015 BKN032 09/07 Q0992 RERA NOSIG
13:18 VATSIM:LEPA 121300Z 22010KT 200V260 9999 FEW018 BKN028 16/12 Q1021 NOSIG
13:18 ROUTE CT3201
13:21 Parking Brakes off
13:35 Take-off
13:35 Take off Weight: 219955 Lbs
13:35 Wind: 262º @ 017 Knots Heading: 239º
13:35 POS N52º 17´ 43´´ E004º 45´ 12´´
13:35 Flaps:3 at 174 Knots
13:35 Gear Up: 176 Knots
13:36 Flaps:2 at 184 Knots
13:37 Flaps:1 at 195 Knots
13:37 Flaps:0 at 184 Knots
13:50 Wind:229º@064 Knots Heading: 208º Ground Speed: 369 Knots Altitude 28697 ft
13:52 TOC
13:52 Fuel Weight: 35636 Lb
14:05 Wind:212º@075 Knots Heading: 204º Ground Speed: 389 Knots Altitude 30725 ft
14:20 Wind:209º@078 Knots Heading: 172º Ground Speed: 408 Knots Altitude 30790 ft
14:35 Wind:206º@057 Knots Heading: 163º Ground Speed: 426 Knots Altitude 30974 ft
14:50 Wind:145º@015 Knots Heading: 178º Ground Speed: 453 Knots Altitude 31151 ft
15:05 Wind:060º@024 Knots Heading: 176º Ground Speed: 476 Knots Altitude 31187 ft
15:20 Wind:220º@029 Knots Heading: 183º Ground Speed: 448 Knots Altitude 31210 ft
15:28 TOD
15:28 Fuel Weight: 14399 Lb
15:35 Wind:220º@034 Knots Heading: 353º Ground Speed: 428 Knots Altitude 21141 ft
15:50 Wind:211º@017 Knots Heading: 190º Ground Speed: 201 Knots Altitude 4406 ft
15:51 Flaps:1 at 192 Knots
15:53 Flaps:2 at 188 Knots
15:54 Gear Down: 187 Knots
15:55 Flaps:3 at 157 Knots
15:56 Flaps:4 at 151 Knots
15:56 Flaps:5 at 146 Knots
15:57 TouchDown:Rate -241 ft/min Speed: 133 Knots
15:57 VATSIM:LEPA 121530Z 21009KT 190V250 9999 FEW020 BKN028 16/11 Q1020 NOSIG
15:57 Land
15:57 Wind:231º@009 Knots
15:57 Heading: 239º
15:57 Flight Duration: 02:22
15:57 Landing Weight: 191336 Lbs
15:57 POS N39º 32´ 51´´ E002º 44´ 42´´
16:00 Parking brakes on
16:00 Block to Block Duration: 02:39
16:00 Final Fuel: 12012 Lbls
16:00 Spent Fuel: 30068 Lbls
16:00 Flight Length: 826 NM
16:00 TOD Land Length: 48 NM

Exportar CSV

Powered by Drupal - Modified by Danger4k